sensor_id;sensor_type;location;lat;lon;timestamp;P1;durP1;ratioP1;P2;durP2;ratioP2
12681;SDS011;6405;59.208;18.216;2022-07-18T00:00:45;0.80;;;0.50;;
12681;SDS011;6405;59.208;18.216;2022-07-18T00:03:12;0.90;;;0.40;;
12681;SDS011;6405;59.208;18.216;2022-07-18T00:05:38;0.47;;;0.47;;
12681;SDS011;6405;59.208;18.216;2022-07-18T00:08:05;0.50;;;0.50;;
12681;SDS011;6405;59.208;18.216;2022-07-18T00:10:31;1.00;;;0.50;;
12681;SDS011;6405;59.208;18.216;2022-07-18T00:12:58;0.97;;;0.47;;
12681;SDS011;6405;59.208;18.216;2022-07-18T00:15:24;0.87;;;0.50;;
12681;SDS011;6405;59.208;18.216;2022-07-18T00:17:51;2.93;;;0.50;;
12681;SDS011;6405;59.208;18.216;2022-07-18T00:20:17;0.43;;;0.43;;
12681;SDS011;6405;59.208;18.216;2022-07-18T00:22:43;0.83;;;0.60;;
12681;SDS011;6405;59.208;18.216;2022-07-18T00:25:11;0.63;;;0.63;;
12681;SDS011;6405;59.208;18.216;2022-07-18T00:27:37;0.60;;;0.53;;
12681;SDS011;6405;59.208;18.216;2022-07-18T00:30:03;0.67;;;0.60;;
12681;SDS011;6405;59.208;18.216;2022-07-18T00:32:29;2.03;;;0.60;;
12681;SDS011;6405;59.208;18.216;2022-07-18T00:34:55;0.80;;;0.50;;
12681;SDS011;6405;59.208;18.216;2022-07-18T00:37:22;1.60;;;0.70;;
12681;SDS011;6405;59.208;18.216;2022-07-18T00:39:49;0.97;;;0.60;;
12681;SDS011;6405;59.208;18.216;2022-07-18T00:42:16;1.37;;;0.50;;
12681;SDS011;6405;59.208;18.216;2022-07-18T00:44:42;0.33;;;0.33;;
12681;SDS011;6405;59.208;18.216;2022-07-18T00:47:09;0.40;;;0.40;;
12681;SDS011;6405;59.208;18.216;2022-07-18T00:49:34;1.90;;;0.60;;
12681;SDS011;6405;59.208;18.216;2022-07-18T00:52:02;0.50;;;0.50;;
12681;SDS011;6405;59.208;18.216;2022-07-18T00:54:30;0.50;;;0.50;;
12681;SDS011;6405;59.208;18.216;2022-07-18T00:56:58;2.37;;;0.57;;
12681;SDS011;6405;59.208;18.216;2022-07-18T00:59:25;0.47;;;0.47;;
12681;SDS011;6405;59.208;18.216;2022-07-18T01:02:13;0.50;;;0.50;;
12681;SDS011;6405;59.208;18.216;2022-07-18T01:04:38;0.50;;;0.50;;
12681;SDS011;6405;59.208;18.216;2022-07-18T01:07:04;0.47;;;0.43;;
12681;SDS011;6405;59.208;18.216;2022-07-18T01:09:30;0.53;;;0.50;;
12681;SDS011;6405;59.208;18.216;2022-07-18T01:11:56;0.50;;;0.50;;
12681;SDS011;6405;59.208;18.216;2022-07-18T01:14:23;0.57;;;0.50;;
12681;SDS011;6405;59.208;18.216;2022-07-18T01:16:50;0.97;;;0.60;;
12681;SDS011;6405;59.208;18.216;2022-07-18T01:19:16;0.50;;;0.50;;
12681;SDS011;6405;59.208;18.216;2022-07-18T01:21:43;0.60;;;0.60;;
12681;SDS011;6405;59.208;18.216;2022-07-18T01:24:10;0.30;;;0.30;;
12681;SDS011;6405;59.208;18.216;2022-07-18T01:26:38;0.50;;;0.50;;
12681;SDS011;6405;59.208;18.216;2022-07-18T01:29:04;0.90;;;0.60;;
12681;SDS011;6405;59.208;18.216;2022-07-18T01:31:32;1.23;;;0.60;;
12681;SDS011;6405;59.208;18.216;2022-07-18T01:33:58;1.77;;;0.50;;
12681;SDS011;6405;59.208;18.216;2022-07-18T01:36:26;0.90;;;0.43;;
12681;SDS011;6405;59.208;18.216;2022-07-18T01:38:53;1.33;;;0.50;;
12681;SDS011;6405;59.208;18.216;2022-07-18T01:41:18;0.40;;;0.40;;
12681;SDS011;6405;59.208;18.216;2022-07-18T01:43:44;0.70;;;0.60;;
12681;SDS011;6405;59.208;18.216;2022-07-18T01:46:12;1.13;;;0.67;;
12681;SDS011;6405;59.208;18.216;2022-07-18T01:48:37;1.83;;;0.80;;
12681;SDS011;6405;59.208;18.216;2022-07-18T01:51:05;0.80;;;0.57;;
12681;SDS011;6405;59.208;18.216;2022-07-18T01:53:39;0.50;;;0.50;;
12681;SDS011;6405;59.208;18.216;2022-07-18T01:56:07;1.27;;;1.00;;
12681;SDS011;6405;59.208;18.216;2022-07-18T01:58:34;0.60;;;0.50;;
12681;SDS011;6405;59.208;18.216;2022-07-18T02:01:01;1.77;;;0.67;;
12681;SDS011;6405;59.208;18.216;2022-07-18T02:03:28;0.67;;;0.50;;
12681;SDS011;6405;59.208;18.216;2022-07-18T02:05:56;0.50;;;0.50;;
12681;SDS011;6405;59.208;18.216;2022-07-18T02:08:24;1.07;;;0.60;;
12681;SDS011;6405;59.208;18.216;2022-07-18T02:10:50;0.53;;;0.53;;
12681;SDS011;6405;59.208;18.216;2022-07-18T02:13:16;0.60;;;0.60;;
12681;SDS011;6405;59.208;18.216;2022-07-18T02:15:45;0.60;;;0.60;;
12681;SDS011;6405;59.208;18.216;2022-07-18T02:18:12;0.50;;;0.50;;
12681;SDS011;6405;59.208;18.216;2022-07-18T02:20:39;0.60;;;0.60;;
12681;SDS011;6405;59.208;18.216;2022-07-18T02:23:06;0.63;;;0.50;;
12681;SDS011;6405;59.208;18.216;2022-07-18T02:25:34;2.70;;;0.77;;
12681;SDS011;6405;59.208;18.216;2022-07-18T02:28:02;0.97;;;0.63;;
12681;SDS011;6405;59.208;18.216;2022-07-18T02:30:30;1.00;;;0.67;;
12681;SDS011;6405;59.208;18.216;2022-07-18T02:32:56;0.50;;;0.50;;
12681;SDS011;6405;59.208;18.216;2022-07-18T02:35:23;0.60;;;0.50;;
12681;SDS011;6405;59.208;18.216;2022-07-18T02:37:49;0.50;;;0.50;;
12681;SDS011;6405;59.208;18.216;2022-07-18T02:40:16;1.27;;;0.60;;
12681;SDS011;6405;59.208;18.216;2022-07-18T02:42:44;0.73;;;0.60;;
12681;SDS011;6405;59.208;18.216;2022-07-18T02:45:10;1.00;;;0.80;;
12681;SDS011;6405;59.208;18.216;2022-07-18T02:47:35;0.80;;;0.53;;
12681;SDS011;6405;59.208;18.216;2022-07-18T02:50:02;0.83;;;0.70;;
12681;SDS011;6405;59.208;18.216;2022-07-18T02:52:28;0.60;;;0.50;;
12681;SDS011;6405;59.208;18.216;2022-07-18T02:54:55;1.00;;;0.67;;
12681;SDS011;6405;59.208;18.216;2022-07-18T02:57:22;1.70;;;0.70;;
12681;SDS011;6405;59.208;18.216;2022-07-18T02:59:50;0.60;;;0.60;;
12681;SDS011;6405;59.208;18.216;2022-07-18T03:02:16;1.37;;;0.70;;
12681;SDS011;6405;59.208;18.216;2022-07-18T03:04:43;1.13;;;0.70;;
12681;SDS011;6405;59.208;18.216;2022-07-18T03:07:09;2.17;;;0.80;;
12681;SDS011;6405;59.208;18.216;2022-07-18T03:09:35;1.97;;;0.80;;
12681;SDS011;6405;59.208;18.216;2022-07-18T03:12:01;1.40;;;0.67;;
12681;SDS011;6405;59.208;18.216;2022-07-18T03:14:29;0.60;;;0.60;;
12681;SDS011;6405;59.208;18.216;2022-07-18T03:16:55;0.73;;;0.60;;
12681;SDS011;6405;59.208;18.216;2022-07-18T03:19:20;2.10;;;0.53;;
12681;SDS011;6405;59.208;18.216;2022-07-18T03:21:46;0.83;;;0.60;;
12681;SDS011;6405;59.208;18.216;2022-07-18T03:24:13;1.00;;;0.80;;
12681;SDS011;6405;59.208;18.216;2022-07-18T03:26:39;0.60;;;0.60;;
12681;SDS011;6405;59.208;18.216;2022-07-18T03:29:05;1.07;;;0.50;;
12681;SDS011;6405;59.208;18.216;2022-07-18T03:31:32;0.60;;;0.60;;
12681;SDS011;6405;59.208;18.216;2022-07-18T03:33:59;1.43;;;0.80;;
12681;SDS011;6405;59.208;18.216;2022-07-18T03:36:24;0.90;;;0.80;;
12681;SDS011;6405;59.208;18.216;2022-07-18T03:38:51;1.80;;;0.87;;
12681;SDS011;6405;59.208;18.216;2022-07-18T03:41:17;1.10;;;0.80;;
12681;SDS011;6405;59.208;18.216;2022-07-18T03:43:44;0.50;;;0.50;;
12681;SDS011;6405;59.208;18.216;2022-07-18T03:46:11;1.00;;;0.90;;
12681;SDS011;6405;59.208;18.216;2022-07-18T03:48:39;1.13;;;0.83;;
12681;SDS011;6405;59.208;18.216;2022-07-18T03:51:04;1.53;;;0.80;;
12681;SDS011;6405;59.208;18.216;2022-07-18T03:53:32;2.00;;;0.77;;
12681;SDS011;6405;59.208;18.216;2022-07-18T03:55:58;1.10;;;0.90;;
12681;SDS011;6405;59.208;18.216;2022-07-18T03:58:25;0.83;;;0.73;;
12681;SDS011;6405;59.208;18.216;2022-07-18T04:00:51;1.33;;;0.87;;
12681;SDS011;6405;59.208;18.216;2022-07-18T04:03:18;1.30;;;0.80;;
12681;SDS011;6405;59.208;18.216;2022-07-18T04:05:44;1.43;;;0.80;;
12681;SDS011;6405;59.208;18.216;2022-07-18T04:08:11;2.03;;;1.43;;
12681;SDS011;6405;59.208;18.216;2022-07-18T04:10:37;1.50;;;0.80;;
12681;SDS011;6405;59.208;18.216;2022-07-18T04:13:06;1.13;;;0.90;;
12681;SDS011;6405;59.208;18.216;2022-07-18T04:15:34;1.13;;;0.80;;
12681;SDS011;6405;59.208;18.216;2022-07-18T04:18:03;1.57;;;1.20;;
12681;SDS011;6405;59.208;18.216;2022-07-18T04:20:30;2.13;;;1.20;;
12681;SDS011;6405;59.208;18.216;2022-07-18T04:22:57;2.23;;;1.00;;
12681;SDS011;6405;59.208;18.216;2022-07-18T04:25:25;1.43;;;1.20;;
12681;SDS011;6405;59.208;18.216;2022-07-18T04:27:54;1.27;;;1.17;;
12681;SDS011;6405;59.208;18.216;2022-07-18T04:30:22;4.83;;;1.10;;
12681;SDS011;6405;59.208;18.216;2022-07-18T04:32:50;2.77;;;1.13;;
12681;SDS011;6405;59.208;18.216;2022-07-18T04:35:17;2.53;;;1.13;;
12681;SDS011;6405;59.208;18.216;2022-07-18T04:37:43;1.90;;;1.03;;
12681;SDS011;6405;59.208;18.216;2022-07-18T04:40:10;1.73;;;1.20;;
12681;SDS011;6405;59.208;18.216;2022-07-18T04:42:37;3.73;;;1.40;;
12681;SDS011;6405;59.208;18.216;2022-07-18T04:45:04;1.63;;;1.30;;
12681;SDS011;6405;59.208;18.216;2022-07-18T04:47:32;1.83;;;1.50;;
12681;SDS011;6405;59.208;18.216;2022-07-18T04:49:59;1.97;;;1.40;;
12681;SDS011;6405;59.208;18.216;2022-07-18T04:52:26;3.50;;;1.43;;
12681;SDS011;6405;59.208;18.216;2022-07-18T04:54:53;2.77;;;1.53;;
12681;SDS011;6405;59.208;18.216;2022-07-18T04:57:20;4.07;;;1.43;;
12681;SDS011;6405;59.208;18.216;2022-07-18T04:59:48;3.33;;;1.70;;
12681;SDS011;6405;59.208;18.216;2022-07-18T05:02:16;3.00;;;1.57;;
12681;SDS011;6405;59.208;18.216;2022-07-18T05:04:41;3.80;;;1.87;;
12681;SDS011;6405;59.208;18.216;2022-07-18T05:07:08;4.13;;;1.73;;
12681;SDS011;6405;59.208;18.216;2022-07-18T05:09:34;7.30;;;2.13;;
12681;SDS011;6405;59.208;18.216;2022-07-18T05:12:01;3.07;;;1.90;;
12681;SDS011;6405;59.208;18.216;2022-07-18T05:14:27;3.87;;;1.70;;
12681;SDS011;6405;59.208;18.216;2022-07-18T05:16:54;3.53;;;2.00;;
12681;SDS011;6405;59.208;18.216;2022-07-18T05:19:21;4.57;;;1.97;;
12681;SDS011;6405;59.208;18.216;2022-07-18T05:21:48;3.83;;;1.83;;
12681;SDS011;6405;59.208;18.216;2022-07-18T05:24:15;3.27;;;1.90;;
12681;SDS011;6405;59.208;18.216;2022-07-18T05:26:42;6.37;;;2.07;;
12681;SDS011;6405;59.208;18.216;2022-07-18T05:29:09;5.97;;;2.07;;
12681;SDS011;6405;59.208;18.216;2022-07-18T05:31:35;4.83;;;1.90;;
12681;SDS011;6405;59.208;18.216;2022-07-18T05:34:02;2.83;;;1.80;;
12681;SDS011;6405;59.208;18.216;2022-07-18T05:36:28;3.67;;;2.00;;
12681;SDS011;6405;59.208;18.216;2022-07-18T05:38:54;5.83;;;2.03;;
12681;SDS011;6405;59.208;18.216;2022-07-18T05:41:20;4.80;;;2.43;;
12681;SDS011;6405;59.208;18.216;2022-07-18T05:43:47;5.33;;;2.40;;
12681;SDS011;6405;59.208;18.216;2022-07-18T05:46:12;4.40;;;2.77;;
12681;SDS011;6405;59.208;18.216;2022-07-18T05:48:39;4.47;;;2.13;;
12681;SDS011;6405;59.208;18.216;2022-07-18T05:51:07;5.63;;;2.30;;
12681;SDS011;6405;59.208;18.216;2022-07-18T05:53:33;5.80;;;2.60;;
12681;SDS011;6405;59.208;18.216;2022-07-18T05:56:00;5.30;;;2.07;;
12681;SDS011;6405;59.208;18.216;2022-07-18T05:58:28;5.30;;;2.13;;
12681;SDS011;6405;59.208;18.216;2022-07-18T06:00:53;5.57;;;2.53;;
12681;SDS011;6405;59.208;18.216;2022-07-18T06:03:20;3.70;;;2.10;;
12681;SDS011;6405;59.208;18.216;2022-07-18T06:05:48;6.03;;;2.80;;
12681;SDS011;6405;59.208;18.216;2022-07-18T06:08:15;3.03;;;2.23;;
12681;SDS011;6405;59.208;18.216;2022-07-18T06:10:43;6.40;;;2.27;;
12681;SDS011;6405;59.208;18.216;2022-07-18T06:13:10;4.67;;;2.20;;
12681;SDS011;6405;59.208;18.216;2022-07-18T06:15:36;4.90;;;2.87;;
12681;SDS011;6405;59.208;18.216;2022-07-18T06:18:03;3.50;;;2.30;;
12681;SDS011;6405;59.208;18.216;2022-07-18T06:20:31;6.57;;;2.60;;
12681;SDS011;6405;59.208;18.216;2022-07-18T06:22:58;6.17;;;2.50;;
12681;SDS011;6405;59.208;18.216;2022-07-18T06:25:25;3.73;;;2.50;;
12681;SDS011;6405;59.208;18.216;2022-07-18T06:27:52;6.47;;;2.80;;
12681;SDS011;6405;59.208;18.216;2022-07-18T06:30:19;6.50;;;2.90;;
12681;SDS011;6405;59.208;18.216;2022-07-18T06:32:48;5.83;;;2.20;;
12681;SDS011;6405;59.208;18.216;2022-07-18T06:35:15;4.07;;;2.00;;
12681;SDS011;6405;59.208;18.216;2022-07-18T06:37:41;4.13;;;2.30;;
12681;SDS011;6405;59.208;18.216;2022-07-18T06:40:07;3.03;;;2.60;;
12681;SDS011;6405;59.208;18.216;2022-07-18T06:42:34;4.80;;;2.27;;
12681;SDS011;6405;59.208;18.216;2022-07-18T06:45:02;6.60;;;2.67;;
12681;SDS011;6405;59.208;18.216;2022-07-18T06:47:31;8.93;;;2.70;;
12681;SDS011;6405;59.208;18.216;2022-07-18T06:50:00;5.33;;;2.60;;
12681;SDS011;6405;59.208;18.216;2022-07-18T06:52:27;4.67;;;2.37;;
12681;SDS011;6405;59.208;18.216;2022-07-18T06:54:54;6.90;;;2.53;;
12681;SDS011;6405;59.208;18.216;2022-07-18T06:57:21;5.47;;;2.27;;
12681;SDS011;6405;59.208;18.216;2022-07-18T06:59:49;5.47;;;2.60;;
12681;SDS011;6405;59.208;18.216;2022-07-18T07:02:16;5.60;;;2.57;;
12681;SDS011;6405;59.208;18.216;2022-07-18T07:04:44;5.13;;;2.40;;
12681;SDS011;6405;59.208;18.216;2022-07-18T07:07:11;3.87;;;2.73;;
12681;SDS011;6405;59.208;18.216;2022-07-18T07:09:38;6.63;;;2.57;;
12681;SDS011;6405;59.208;18.216;2022-07-18T07:12:05;4.07;;;2.20;;
12681;SDS011;6405;59.208;18.216;2022-07-18T07:14:33;6.57;;;2.40;;
12681;SDS011;6405;59.208;18.216;2022-07-18T07:17:00;5.00;;;2.53;;
12681;SDS011;6405;59.208;18.216;2022-07-18T07:19:28;3.20;;;2.27;;
12681;SDS011;6405;59.208;18.216;2022-07-18T07:21:55;3.83;;;2.10;;
12681;SDS011;6405;59.208;18.216;2022-07-18T07:24:22;8.57;;;2.83;;
12681;SDS011;6405;59.208;18.216;2022-07-18T07:26:49;6.13;;;2.00;;
12681;SDS011;6405;59.208;18.216;2022-07-18T07:29:16;7.97;;;2.90;;
12681;SDS011;6405;59.208;18.216;2022-07-18T07:31:43;7.53;;;2.57;;
12681;SDS011;6405;59.208;18.216;2022-07-18T07:34:09;5.00;;;2.70;;
12681;SDS011;6405;59.208;18.216;2022-07-18T07:36:35;5.67;;;2.50;;
12681;SDS011;6405;59.208;18.216;2022-07-18T07:39:03;6.70;;;2.40;;
12681;SDS011;6405;59.208;18.216;2022-07-18T07:41:30;5.70;;;2.23;;
12681;SDS011;6405;59.208;18.216;2022-07-18T07:43:58;3.33;;;2.13;;
12681;SDS011;6405;59.208;18.216;2022-07-18T07:46:25;3.20;;;2.20;;
12681;SDS011;6405;59.208;18.216;2022-07-18T07:48:52;5.60;;;2.87;;
12681;SDS011;6405;59.208;18.216;2022-07-18T07:51:20;3.60;;;2.07;;
12681;SDS011;6405;59.208;18.216;2022-07-18T07:53:47;3.37;;;2.00;;
12681;SDS011;6405;59.208;18.216;2022-07-18T07:56:14;7.33;;;2.87;;
12681;SDS011;6405;59.208;18.216;2022-07-18T07:58:45;4.70;;;2.20;;
12681;SDS011;6405;59.208;18.216;2022-07-18T08:01:14;6.43;;;2.00;;
12681;SDS011;6405;59.208;18.216;2022-07-18T08:03:44;4.40;;;2.13;;
12681;SDS011;6405;59.208;18.216;2022-07-18T08:06:12;5.17;;;2.67;;
12681;SDS011;6405;59.208;18.216;2022-07-18T08:08:39;5.00;;;2.13;;
12681;SDS011;6405;59.208;18.216;2022-07-18T08:11:06;3.87;;;2.13;;
12681;SDS011;6405;59.208;18.216;2022-07-18T08:13:33;5.67;;;2.53;;
12681;SDS011;6405;59.208;18.216;2022-07-18T08:16:00;4.93;;;2.00;;
12681;SDS011;6405;59.208;18.216;2022-07-18T08:18:28;5.27;;;2.50;;
12681;SDS011;6405;59.208;18.216;2022-07-18T08:20:54;5.13;;;2.30;;
12681;SDS011;6405;59.208;18.216;2022-07-18T08:23:20;4.27;;;2.30;;
12681;SDS011;6405;59.208;18.216;2022-07-18T08:25:47;5.10;;;2.23;;
12681;SDS011;6405;59.208;18.216;2022-07-18T08:28:13;4.43;;;2.37;;
12681;SDS011;6405;59.208;18.216;2022-07-18T08:30:41;4.47;;;2.30;;
12681;SDS011;6405;59.208;18.216;2022-07-18T08:33:07;4.43;;;2.13;;
12681;SDS011;6405;59.208;18.216;2022-07-18T08:35:33;5.63;;;2.40;;
12681;SDS011;6405;59.208;18.216;2022-07-18T08:38:01;5.70;;;1.93;;
12681;SDS011;6405;59.208;18.216;2022-07-18T08:40:28;5.83;;;2.53;;
12681;SDS011;6405;59.208;18.216;2022-07-18T08:42:55;4.40;;;2.00;;
12681;SDS011;6405;59.208;18.216;2022-07-18T08:45:24;2.43;;;1.93;;
12681;SDS011;6405;59.208;18.216;2022-07-18T08:47:51;6.03;;;2.10;;
12681;SDS011;6405;59.208;18.216;2022-07-18T08:50:18;3.87;;;2.30;;
12681;SDS011;6405;59.208;18.216;2022-07-18T08:52:45;4.67;;;2.33;;
12681;SDS011;6405;59.208;18.216;2022-07-18T08:55:12;3.23;;;1.87;;
12681;SDS011;6405;59.208;18.216;2022-07-18T08:57:40;3.43;;;2.10;;
12681;SDS011;6405;59.208;18.216;2022-07-18T09:00:08;5.83;;;2.40;;
12681;SDS011;6405;59.208;18.216;2022-07-18T09:02:36;7.30;;;2.40;;
12681;SDS011;6405;59.208;18.216;2022-07-18T09:05:04;7.43;;;2.33;;
12681;SDS011;6405;59.208;18.216;2022-07-18T09:07:42;5.20;;;2.60;;
12681;SDS011;6405;59.208;18.216;2022-07-18T09:10:09;7.70;;;2.80;;
12681;SDS011;6405;59.208;18.216;2022-07-18T09:12:36;7.03;;;2.53;;
12681;SDS011;6405;59.208;18.216;2022-07-18T09:15:04;5.27;;;2.73;;
12681;SDS011;6405;59.208;18.216;2022-07-18T09:17:33;3.70;;;2.40;;
12681;SDS011;6405;59.208;18.216;2022-07-18T09:20:06;4.00;;;2.20;;
12681;SDS011;6405;59.208;18.216;2022-07-18T09:22:40;6.03;;;2.23;;
12681;SDS011;6405;59.208;18.216;2022-07-18T09:25:10;4.90;;;2.33;;
12681;SDS011;6405;59.208;18.216;2022-07-18T09:27:39;4.60;;;2.30;;
12681;SDS011;6405;59.208;18.216;2022-07-18T09:30:21;3.93;;;1.83;;
12681;SDS011;6405;59.208;18.216;2022-07-18T09:33:10;3.13;;;2.20;;
12681;SDS011;6405;59.208;18.216;2022-07-18T09:35:44;3.13;;;2.00;;
12681;SDS011;6405;59.208;18.216;2022-07-18T09:38:11;4.23;;;1.87;;
12681;SDS011;6405;59.208;18.216;2022-07-18T09:40:42;5.50;;;2.30;;
12681;SDS011;6405;59.208;18.216;2022-07-18T09:43:11;3.33;;;2.17;;
12681;SDS011;6405;59.208;18.216;2022-07-18T09:45:42;3.27;;;1.70;;
12681;SDS011;6405;59.208;18.216;2022-07-18T09:48:17;3.83;;;1.90;;
12681;SDS011;6405;59.208;18.216;2022-07-18T09:53:16;5.13;;;2.20;;
12681;SDS011;6405;59.208;18.216;2022-07-18T09:55:46;3.50;;;1.90;;
12681;SDS011;6405;59.208;18.216;2022-07-18T09:58:21;2.80;;;1.60;;
12681;SDS011;6405;59.208;18.216;2022-07-18T10:00:49;3.57;;;1.77;;
12681;SDS011;6405;59.208;18.216;2022-07-18T10:03:17;3.07;;;1.80;;
12681;SDS011;6405;59.208;18.216;2022-07-18T10:05:45;2.40;;;1.53;;
12681;SDS011;6405;59.208;18.216;2022-07-18T10:08:19;4.20;;;2.10;;
12681;SDS011;6405;59.208;18.216;2022-07-18T10:10:48;4.30;;;1.87;;
12681;SDS011;6405;59.208;18.216;2022-07-18T10:13:16;2.60;;;1.90;;
12681;SDS011;6405;59.208;18.216;2022-07-18T10:15:46;3.03;;;2.10;;
12681;SDS011;6405;59.208;18.216;2022-07-18T10:18:14;5.57;;;2.27;;
12681;SDS011;6405;59.208;18.216;2022-07-18T10:23:47;4.50;;;2.13;;
12681;SDS011;6405;59.208;18.216;2022-07-18T10:26:15;3.47;;;1.90;;
12681;SDS011;6405;59.208;18.216;2022-07-18T10:31:23;3.10;;;1.83;;
12681;SDS011;6405;59.208;18.216;2022-07-18T10:36:34;3.10;;;1.63;;
12681;SDS011;6405;59.208;18.216;2022-07-18T10:57:36;5.20;;;1.77;;
12681;SDS011;6405;59.208;18.216;2022-07-18T11:00:13;3.30;;;2.10;;
12681;SDS011;6405;59.208;18.216;2022-07-18T11:02:46;2.70;;;1.87;;
12681;SDS011;6405;59.208;18.216;2022-07-18T11:18:31;3.07;;;2.10;;
12681;SDS011;6405;59.208;18.216;2022-07-18T11:20:58;4.83;;;2.00;;
12681;SDS011;6405;59.208;18.216;2022-07-18T11:23:26;3.70;;;1.77;;
12681;SDS011;6405;59.208;18.216;2022-07-18T11:25:57;2.67;;;1.73;;
12681;SDS011;6405;59.208;18.216;2022-07-18T11:28:25;3.20;;;1.67;;
12681;SDS011;6405;59.208;18.216;2022-07-18T11:30:59;2.83;;;1.93;;
12681;SDS011;6405;59.208;18.216;2022-07-18T11:33:30;3.50;;;1.60;;
12681;SDS011;6405;59.208;18.216;2022-07-18T11:36:04;2.53;;;1.73;;
12681;SDS011;6405;59.208;18.216;2022-07-18T11:38:36;3.10;;;1.90;;
12681;SDS011;6405;59.208;18.216;2022-07-18T11:41:04;3.30;;;2.10;;
12681;SDS011;6405;59.208;18.216;2022-07-18T11:43:30;3.53;;;1.93;;
12681;SDS011;6405;59.208;18.216;2022-07-18T11:48:33;2.70;;;2.20;;
12681;SDS011;6405;59.208;18.216;2022-07-18T11:51:01;2.80;;;2.10;;
12681;SDS011;6405;59.208;18.216;2022-07-18T11:53:28;5.10;;;1.90;;
12681;SDS011;6405;59.208;18.216;2022-07-18T11:55:55;2.57;;;1.97;;
12681;SDS011;6405;59.208;18.216;2022-07-18T11:58:34;2.80;;;1.80;;
12681;SDS011;6405;59.208;18.216;2022-07-18T12:01:02;1.90;;;1.50;;
12681;SDS011;6405;59.208;18.216;2022-07-18T12:03:30;2.90;;;1.93;;
12681;SDS011;6405;59.208;18.216;2022-07-18T12:06:06;1.87;;;1.30;;
12681;SDS011;6405;59.208;18.216;2022-07-18T12:08:50;2.67;;;1.80;;
12681;SDS011;6405;59.208;18.216;2022-07-18T12:11:27;4.70;;;1.90;;
12681;SDS011;6405;59.208;18.216;2022-07-18T12:13:57;2.50;;;1.90;;
12681;SDS011;6405;59.208;18.216;2022-07-18T12:16:30;3.37;;;1.70;;
12681;SDS011;6405;59.208;18.216;2022-07-18T12:19:03;2.87;;;1.80;;
12681;SDS011;6405;59.208;18.216;2022-07-18T12:26:47;3.20;;;1.70;;
12681;SDS011;6405;59.208;18.216;2022-07-18T12:29:14;2.73;;;2.00;;
12681;SDS011;6405;59.208;18.216;2022-07-18T12:31:41;3.10;;;1.83;;
12681;SDS011;6405;59.208;18.216;2022-07-18T12:36:49;3.30;;;1.60;;
12681;SDS011;6405;59.208;18.216;2022-07-18T12:39:30;3.00;;;1.53;;
12681;SDS011;6405;59.208;18.216;2022-07-18T12:41:58;2.87;;;1.97;;
12681;SDS011;6405;59.208;18.216;2022-07-18T12:44:26;2.77;;;1.77;;
12681;SDS011;6405;59.208;18.216;2022-07-18T12:46:53;5.67;;;2.10;;
12681;SDS011;6405;59.208;18.216;2022-07-18T12:49:21;3.00;;;2.10;;
12681;SDS011;6405;59.208;18.216;2022-07-18T12:51:47;3.27;;;1.77;;
12681;SDS011;6405;59.208;18.216;2022-07-18T12:54:17;2.83;;;1.73;;
12681;SDS011;6405;59.208;18.216;2022-07-18T12:56:44;3.07;;;1.80;;
12681;SDS011;6405;59.208;18.216;2022-07-18T12:59:11;4.33;;;1.77;;
12681;SDS011;6405;59.208;18.216;2022-07-18T13:01:37;1.70;;;1.60;;
12681;SDS011;6405;59.208;18.216;2022-07-18T13:04:05;3.03;;;1.70;;
12681;SDS011;6405;59.208;18.216;2022-07-18T13:06:32;2.10;;;1.53;;
12681;SDS011;6405;59.208;18.216;2022-07-18T13:09:00;2.77;;;1.60;;
12681;SDS011;6405;59.208;18.216;2022-07-18T13:11:27;2.17;;;1.40;;
12681;SDS011;6405;59.208;18.216;2022-07-18T13:13:55;3.20;;;1.80;;
12681;SDS011;6405;59.208;18.216;2022-07-18T13:16:23;1.40;;;1.30;;
12681;SDS011;6405;59.208;18.216;2022-07-18T13:18:50;2.83;;;1.30;;
12681;SDS011;6405;59.208;18.216;2022-07-18T13:21:17;3.67;;;1.87;;
12681;SDS011;6405;59.208;18.216;2022-07-18T13:23:44;2.33;;;1.40;;
12681;SDS011;6405;59.208;18.216;2022-07-18T13:26:12;2.00;;;1.63;;
12681;SDS011;6405;59.208;18.216;2022-07-18T13:28:39;3.93;;;1.90;;
12681;SDS011;6405;59.208;18.216;2022-07-18T13:31:06;2.13;;;1.80;;
12681;SDS011;6405;59.208;18.216;2022-07-18T13:33:35;3.90;;;1.77;;
12681;SDS011;6405;59.208;18.216;2022-07-18T13:36:02;6.43;;;1.90;;
12681;SDS011;6405;59.208;18.216;2022-07-18T13:38:28;2.40;;;1.60;;
12681;SDS011;6405;59.208;18.216;2022-07-18T13:40:55;2.80;;;1.80;;
12681;SDS011;6405;59.208;18.216;2022-07-18T13:43:22;2.40;;;1.77;;
12681;SDS011;6405;59.208;18.216;2022-07-18T13:45:49;2.70;;;1.93;;
12681;SDS011;6405;59.208;18.216;2022-07-18T13:48:16;2.20;;;1.97;;
12681;SDS011;6405;59.208;18.216;2022-07-18T13:50:43;2.40;;;1.70;;
12681;SDS011;6405;59.208;18.216;2022-07-18T13:53:09;2.70;;;1.90;;
12681;SDS011;6405;59.208;18.216;2022-07-18T13:55:36;2.43;;;2.00;;
12681;SDS011;6405;59.208;18.216;2022-07-18T13:58:03;2.57;;;1.83;;
12681;SDS011;6405;59.208;18.216;2022-07-18T14:00:31;3.80;;;2.03;;
12681;SDS011;6405;59.208;18.216;2022-07-18T14:02:58;2.83;;;1.73;;
12681;SDS011;6405;59.208;18.216;2022-07-18T14:05:24;2.63;;;2.03;;
12681;SDS011;6405;59.208;18.216;2022-07-18T14:07:51;2.57;;;1.83;;
12681;SDS011;6405;59.208;18.216;2022-07-18T14:10:18;2.53;;;1.97;;
12681;SDS011;6405;59.208;18.216;2022-07-18T14:12:44;2.23;;;1.80;;
12681;SDS011;6405;59.208;18.216;2022-07-18T14:15:11;3.73;;;1.60;;
12681;SDS011;6405;59.208;18.216;2022-07-18T14:17:38;3.47;;;1.97;;
12681;SDS011;6405;59.208;18.216;2022-07-18T14:20:04;2.00;;;1.57;;
12681;SDS011;6405;59.208;18.216;2022-07-18T14:22:33;2.73;;;1.77;;
12681;SDS011;6405;59.208;18.216;2022-07-18T14:25:03;3.00;;;1.63;;
12681;SDS011;6405;59.208;18.216;2022-07-18T14:27:34;3.80;;;1.77;;
12681;SDS011;6405;59.208;18.216;2022-07-18T14:30:03;2.47;;;1.90;;
12681;SDS011;6405;59.208;18.216;2022-07-18T14:32:31;6.27;;;1.97;;
12681;SDS011;6405;59.208;18.216;2022-07-18T14:34:58;3.97;;;1.87;;
12681;SDS011;6405;59.208;18.216;2022-07-18T14:37:24;3.73;;;1.77;;
12681;SDS011;6405;59.208;18.216;2022-07-18T14:39:51;4.07;;;1.60;;
12681;SDS011;6405;59.208;18.216;2022-07-18T14:42:17;1.93;;;1.47;;
12681;SDS011;6405;59.208;18.216;2022-07-18T14:44:46;1.37;;;1.17;;
12681;SDS011;6405;59.208;18.216;2022-07-18T14:47:12;2.57;;;1.50;;
12681;SDS011;6405;59.208;18.216;2022-07-18T14:49:39;2.17;;;1.50;;
12681;SDS011;6405;59.208;18.216;2022-07-18T14:52:06;1.63;;;1.37;;
12681;SDS011;6405;59.208;18.216;2022-07-18T14:54:33;1.57;;;1.47;;
12681;SDS011;6405;59.208;18.216;2022-07-18T14:56:59;2.03;;;1.27;;
12681;SDS011;6405;59.208;18.216;2022-07-18T14:59:28;3.37;;;1.67;;
12681;SDS011;6405;59.208;18.216;2022-07-18T15:01:56;2.00;;;0.97;;
12681;SDS011;6405;59.208;18.216;2022-07-18T15:04:25;1.13;;;0.97;;
12681;SDS011;6405;59.208;18.216;2022-07-18T15:06:52;2.13;;;1.30;;
12681;SDS011;6405;59.208;18.216;2022-07-18T15:09:19;1.63;;;1.10;;
12681;SDS011;6405;59.208;18.216;2022-07-18T15:11:45;3.03;;;1.43;;
12681;SDS011;6405;59.208;18.216;2022-07-18T15:14:12;1.83;;;1.20;;
12681;SDS011;6405;59.208;18.216;2022-07-18T15:16:39;1.47;;;1.23;;
12681;SDS011;6405;59.208;18.216;2022-07-18T15:19:06;1.40;;;1.03;;
12681;SDS011;6405;59.208;18.216;2022-07-18T15:21:32;2.00;;;1.10;;
12681;SDS011;6405;59.208;18.216;2022-07-18T15:23:59;1.80;;;1.27;;
12681;SDS011;6405;59.208;18.216;2022-07-18T15:26:25;1.67;;;1.23;;
12681;SDS011;6405;59.208;18.216;2022-07-18T15:28:52;2.30;;;1.80;;
12681;SDS011;6405;59.208;18.216;2022-07-18T15:31:19;2.93;;;1.60;;
12681;SDS011;6405;59.208;18.216;2022-07-18T15:33:47;2.93;;;1.67;;
12681;SDS011;6405;59.208;18.216;2022-07-18T15:36:13;2.20;;;1.80;;
12681;SDS011;6405;59.208;18.216;2022-07-18T15:38:41;2.40;;;1.80;;
12681;SDS011;6405;59.208;18.216;2022-07-18T15:41:08;2.97;;;1.60;;
12681;SDS011;6405;59.208;18.216;2022-07-18T15:43:37;2.93;;;1.70;;